Time;durP1;ratioP1;P1;durP2;ratioP2;P2;SDS_P1;SDS_P2;PMS_P1;PMS_P2;Temp;Humidity;BMP_temperature;BMP_pressure;BME280_temperature;BME280_humidity;BME280_pressure;Samples;Min_cycle;Max_cycle;Signal;HPM_P1;HPM_P2
2020/12/11 00:02:04;;;;;;;9.07;5.80;;;3.40;72.50;;;;;;5057779;28;20031;-82
2020/12/11 00:04:30;;;;;;;7.57;5.17;;;3.40;72.90;;;;;;5058150;28;20025;-82
2020/12/11 00:07:00;;;;;;;9.43;5.23;;;3.30;73.00;;;;;;5057567;28;20074;-82
2020/12/11 00:09:27;;;;;;;8.47;5.00;;;3.20;73.10;;;;;;5075777;28;20091;-82
2020/12/11 00:11:53;;;;;;;7.57;4.60;;;3.10;73.50;;;;;;5057635;28;20029;-83
2020/12/11 00:14:19;;;;;;;9.00;4.70;;;3.00;73.60;;;;;;5058196;28;20503;-82
2020/12/11 00:16:44;;;;;;;8.40;4.73;;;2.80;74.90;;;;;;5057375;28;20024;-82
2020/12/11 00:19:10;;;;;;;8.60;4.77;;;2.80;74.50;;;;;;5057370;28;20609;-82
2020/12/11 00:21:44;;;;;;;8.13;4.63;;;2.70;74.50;;;;;;5057758;28;20062;-81
2020/12/11 00:24:11;;;;;;;7.80;4.53;;;2.70;74.70;;;;;;5074995;28;20016;-82
2020/12/11 00:26:37;;;;;;;6.90;4.33;;;2.60;74.80;;;;;;5057559;28;20123;-82
2020/12/11 00:29:03;;;;;;;5.80;4.17;;;2.50;75.10;;;;;;5057010;28;20163;-82
2020/12/11 00:31:29;;;;;;;7.80;4.40;;;2.50;75.10;;;;;;5057770;28;20025;-82
2020/12/11 00:33:55;;;;;;;7.77;4.73;;;2.50;75.30;;;;;;5056658;28;20055;-83
2020/12/11 00:36:22;;;;;;;8.13;4.80;;;2.50;75.20;;;;;;5075339;28;20389;-81
2020/12/11 00:38:47;;;;;;;8.33;5.03;;;2.40;75.30;;;;;;5057390;28;20028;-82
2020/12/11 00:41:14;;;;;;;8.63;4.80;;;2.40;75.60;;;;;;5074776;28;20127;-82
2020/12/11 00:43:39;;;;;;;7.70;5.10;;;2.30;75.80;;;;;;5057399;28;20025;-82
2020/12/11 00:46:05;;;;;;;6.80;4.47;;;2.30;75.90;;;;;;5074698;28;20541;-82
2020/12/11 00:48:31;;;;;;;8.73;4.73;;;2.30;75.90;;;;;;5074937;28;20029;-81
2020/12/11 00:50:57;;;;;;;9.57;5.40;;;2.30;75.70;;;;;;5056931;28;20123;-82
2020/12/11 00:53:23;;;;;;;15.00;5.93;;;2.20;75.90;;;;;;5056397;28;20028;-81
2020/12/11 00:55:49;;;;;;;9.17;5.00;;;2.20;76.10;;;;;;5057336;28;20047;-81
2020/12/11 00:58:14;;;;;;;8.13;4.90;;;2.10;76.50;;;;;;5074069;28;20416;-81
2020/12/11 01:00:40;;;;;;;7.83;4.80;;;2.10;76.60;;;;;;5057281;28;20024;-81
2020/12/11 01:03:06;;;;;;;6.90;4.30;;;2.10;76.50;;;;;;5073557;28;20500;-82
2020/12/11 01:05:32;;;;;;;7.43;4.50;;;2.10;76.40;;;;;;5056952;28;20031;-82
2020/12/11 01:07:58;;;;;;;8.57;4.63;;;2.10;76.30;;;;;;5056196;28;20596;-82
2020/12/11 01:10:24;;;;;;;8.63;4.63;;;2.00;76.50;;;;;;5056902;28;20033;-80
2020/12/11 01:12:50;;;;;;;10.60;4.80;;;2.00;76.70;;;;;;5056650;28;20465;-82
2020/12/11 01:15:15;;;;;;;8.07;4.60;;;2.00;76.70;;;;;;5056361;28;20434;-82
2020/12/11 01:17:41;;;;;;;8.97;4.97;;;2.00;76.50;;;;;;5056789;28;20032;-82
2020/12/11 01:20:07;;;;;;;6.03;4.30;;;1.90;76.50;;;;;;5056398;28;20060;-78
2020/12/11 01:22:33;;;;;;;8.10;4.40;;;1.90;76.90;;;;;;5056696;28;20028;-81
2020/12/11 01:24:59;;;;;;;10.00;5.00;;;1.90;76.90;;;;;;5055999;28;20027;-82
2020/12/11 01:27:24;;;;;;;8.20;4.37;;;1.90;77.00;;;;;;5056381;28;20035;-80
2020/12/11 01:29:50;;;;;;;8.23;4.60;;;1.80;76.90;;;;;;5056572;28;20389;-81
2020/12/11 01:32:16;;;;;;;8.70;4.70;;;1.80;76.90;;;;;;5055686;28;20051;-82
2020/12/11 01:34:42;;;;;;;8.93;4.80;;;1.80;77.00;;;;;;5056654;28;20462;-82
2020/12/11 01:37:08;;;;;;;8.77;4.83;;;1.80;77.20;;;;;;5073571;28;20485;-81
2020/12/11 01:39:33;;;;;;;7.77;4.60;;;1.80;77.00;;;;;;5056541;28;20050;-82
2020/12/11 01:42:00;;;;;;;8.93;4.80;;;1.80;77.10;;;;;;5055884;28;20476;-82
2020/12/11 01:44:26;;;;;;;6.80;4.33;;;1.80;77.30;;;;;;5056286;28;20158;-82
2020/12/11 01:46:56;;;;;;;7.43;4.97;;;1.80;77.30;;;;;;5056093;28;20021;-81
2020/12/11 01:49:22;;;;;;;8.07;5.03;;;1.70;77.40;;;;;;5055538;28;20028;-82
2020/12/11 01:51:50;;;;;;;8.17;5.00;;;1.80;77.50;;;;;;5055861;28;20032;-82
2020/12/11 01:54:17;;;;;;;7.07;4.60;;;1.70;77.40;;;;;;5072845;28;20024;-81
2020/12/11 01:56:59;;;;;;;11.97;5.50;;;1.70;77.50;;;;;;5055809;28;20046;-81
2020/12/11 01:59:32;;;;;;;7.03;4.70;;;1.70;77.60;;;;;;5055706;28;20066;-81
2020/12/11 02:01:59;;;;;;;10.53;5.27;;;1.70;77.60;;;;;;5055501;28;20024;-85
2020/12/11 02:04:25;;;;;;;9.57;5.47;;;1.70;78.00;;;;;;5055708;28;20120;-81
2020/12/11 02:06:51;;;;;;;9.90;4.80;;;1.60;78.10;;;;;;5055735;28;20028;-81
2020/12/11 02:09:22;;;;;;;8.33;5.03;;;1.60;78.30;;;;;;5072721;28;20178;-82
2020/12/11 02:11:52;;;;;;;9.07;5.43;;;1.60;78.20;;;;;;5056063;28;20081;-81
2020/12/11 02:14:18;;;;;;;8.97;5.30;;;1.60;78.20;;;;;;5073319;28;20049;-81
2020/12/11 02:16:44;;;;;;;9.50;5.20;;;1.70;78.30;;;;;;5055951;28;20139;-82
2020/12/11 02:19:10;;;;;;;8.03;4.60;;;1.70;78.20;;;;;;5055349;28;20179;-82
2020/12/11 02:21:36;;;;;;;10.20;5.50;;;1.70;78.00;;;;;;5055822;28;20035;-81
2020/12/11 02:24:02;;;;;;;9.73;5.73;;;1.50;78.20;;;;;;5055451;28;20029;-82
2020/12/11 02:26:27;;;;;;;8.63;4.80;;;1.60;78.50;;;;;;5055813;28;20035;-82
2020/12/11 02:28:53;;;;;;;8.90;4.77;;;1.60;78.30;;;;;;5055694;28;20396;-81
2020/12/11 02:31:19;;;;;;;8.20;4.80;;;1.60;78.50;;;;;;5054551;28;20034;-82
2020/12/11 02:33:44;;;;;;;8.10;4.87;;;1.60;78.50;;;;;;5073719;28;20127;-81
2020/12/11 02:36:10;;;;;;;8.60;4.87;;;1.60;78.50;;;;;;5055219;28;20029;-81
2020/12/11 02:38:35;;;;;;;7.00;4.83;;;1.60;78.50;;;;;;5055644;28;20515;-82
2020/12/11 02:41:01;;;;;;;8.93;5.10;;;1.60;78.30;;;;;;5072757;28;20028;-82
2020/12/11 02:43:28;;;;;;;7.73;4.57;;;1.60;78.30;;;;;;5055606;28;20025;-81
2020/12/11 02:45:55;;;;;;;9.37;5.57;;;1.60;78.20;;;;;;5055235;28;20071;-81
2020/12/11 02:48:21;;;;;;;8.33;4.93;;;1.60;78.50;;;;;;5054263;28;20029;-82
2020/12/11 02:50:47;;;;;;;8.87;4.97;;;1.60;78.60;;;;;;5072956;28;20477;-81
2020/12/11 02:53:13;;;;;;;7.30;4.80;;;1.60;78.50;;;;;;5055224;28;20390;-82
2020/12/11 02:55:38;;;;;;;7.27;4.50;;;1.60;78.50;;;;;;5055350;28;20032;-81
2020/12/11 02:58:04;;;;;;;6.93;4.70;;;1.50;78.20;;;;;;5054583;28;20469;-82
2020/12/11 03:00:30;;;;;;;8.43;5.00;;;1.50;78.40;;;;;;5054990;28;20017;-81
2020/12/11 03:02:55;;;;;;;8.50;4.90;;;1.50;78.60;;;;;;5073210;28;20558;-81
2020/12/11 03:05:21;;;;;;;8.67;5.07;;;1.50;78.50;;;;;;5054465;28;20025;-81
2020/12/11 03:07:47;;;;;;;8.43;5.00;;;1.40;78.50;;;;;;5055603;28;20028;-81
2020/12/11 03:10:13;;;;;;;9.13;4.70;;;1.50;78.90;;;;;;5072323;28;20067;-81
2020/12/11 03:12:38;;;;;;;7.63;4.80;;;1.50;78.90;;;;;;5055006;28;20024;-80
2020/12/11 03:15:04;;;;;;;8.73;5.30;;;1.50;78.80;;;;;;5054406;28;20519;-82
2020/12/11 03:17:30;;;;;;;8.70;5.07;;;1.50;78.90;;;;;;5075256;28;20525;-80
2020/12/11 03:19:56;;;;;;;8.30;5.23;;;1.40;78.80;;;;;;5058835;28;20115;-81
2020/12/11 03:22:22;;;;;;;9.03;4.73;;;1.40;78.70;;;;;;5058040;28;20567;-81
2020/12/11 03:24:48;;;;;;;7.53;4.60;;;1.40;78.90;;;;;;5075661;28;20111;-81
2020/12/11 03:27:13;;;;;;;9.17;5.10;;;1.40;78.90;;;;;;5075716;28;20028;-81
2020/12/11 03:29:39;;;;;;;9.73;5.27;;;1.40;78.90;;;;;;5058820;28;20028;-81
2020/12/11 03:32:05;;;;;;;8.23;4.97;;;1.40;79.00;;;;;;5058064;28;20366;-82
2020/12/11 03:34:31;;;;;;;7.87;4.70;;;1.40;79.10;;;;;;5058266;28;20020;-81
2020/12/11 03:36:57;;;;;;;7.40;4.67;;;1.40;79.20;;;;;;5058682;28;20405;-81
2020/12/11 03:39:22;;;;;;;8.77;4.87;;;1.40;79.10;;;;;;5058059;28;20028;-81
2020/12/11 03:41:52;;;;;;;8.80;5.10;;;1.40;79.10;;;;;;5058491;28;20025;-80
2020/12/11 03:44:18;;;;;;;7.27;4.73;;;1.40;79.20;;;;;;5057979;28;20030;-81
2020/12/11 03:46:44;;;;;;;8.57;5.20;;;1.40;79.20;;;;;;5057716;28;20028;-81
2020/12/11 03:49:10;;;;;;;9.10;5.13;;;1.40;79.20;;;;;;5075705;28;20028;-81
2020/12/11 03:51:35;;;;;;;7.70;4.67;;;1.40;78.90;;;;;;5058696;28;20067;-81
2020/12/11 03:54:01;;;;;;;9.03;4.80;;;1.40;79.30;;;;;;5075666;28;20029;-82
2020/12/11 03:56:27;;;;;;;9.60;4.90;;;1.40;79.20;;;;;;5058173;28;20078;-81
2020/12/11 03:58:53;;;;;;;9.27;5.60;;;1.40;79.40;;;;;;5058390;28;20221;-81
2020/12/11 04:01:18;;;;;;;8.23;4.57;;;1.40;79.70;;;;;;5075277;28;20032;-81
2020/12/11 04:03:44;;;;;;;9.20;4.90;;;1.40;79.70;;;;;;5057978;28;20051;-81
2020/12/11 04:06:11;;;;;;;6.40;4.40;;;1.40;79.70;;;;;;5057314;28;20077;-82
2020/12/11 04:08:38;;;;;;;7.13;4.47;;;1.40;79.60;;;;;;5058058;28;20051;-81
2020/12/11 04:11:12;;;;;;;8.27;5.30;;;1.40;79.80;;;;;;5057827;28;20602;-82
2020/12/11 04:13:37;;;;;;;8.23;4.73;;;1.40;79.60;;;;;;5058407;28;20414;-81
2020/12/11 04:16:03;;;;;;;7.10;4.70;;;1.40;79.70;;;;;;5057883;28;20082;-83
2020/12/11 04:18:30;;;;;;;9.07;4.77;;;1.40;79.70;;;;;;5057931;28;20036;-81
2020/12/11 04:20:56;;;;;;;9.53;5.27;;;1.30;79.80;;;;;;5058051;28;20027;-80
2020/12/11 04:23:23;;;;;;;8.37;5.00;;;1.30;79.70;;;;;;5057563;28;20020;-81
2020/12/11 04:25:49;;;;;;;9.43;5.03;;;1.30;80.10;;;;;;5057970;28;20024;-81
2020/12/11 04:28:14;;;;;;;8.10;4.77;;;1.30;80.10;;;;;;5056277;28;20037;-81
2020/12/11 04:30:40;;;;;;;8.40;5.00;;;1.30;79.80;;;;;;5057869;28;20024;-81
2020/12/11 04:33:07;;;;;;;7.70;4.37;;;1.30;80.00;;;;;;5044950;28;20088;-83
2020/12/11 04:35:33;;;;;;;7.63;4.50;;;1.30;79.90;;;;;;5034469;28;20060;-81
2020/12/11 04:37:59;;;;;;;8.97;5.03;;;1.30;79.80;;;;;;5034501;28;20554;-80
2020/12/11 04:40:25;;;;;;;8.07;5.00;;;1.20;79.80;;;;;;5034933;28;20056;-81
2020/12/11 04:42:51;;;;;;;8.80;4.73;;;1.20;80.30;;;;;;5034246;28;20463;-81
2020/12/11 04:45:17;;;;;;;9.90;5.17;;;1.20;79.70;;;;;;5033791;28;20060;-81
2020/12/11 04:47:44;;;;;;;8.67;4.83;;;1.20;79.80;;;;;;5034040;28;20025;-81
2020/12/11 04:50:17;;;;;;;8.10;4.87;;;1.20;79.70;;;;;;5034440;28;20482;-81
2020/12/11 04:52:45;;;;;;;8.10;5.13;;;1.20;79.80;;;;;;5035242;28;20132;-81
2020/12/11 04:55:16;;;;;;;8.37;4.83;;;1.10;79.70;;;;;;5033381;28;20029;-81
2020/12/11 04:57:50;;;;;;;9.33;4.37;;;1.00;80.40;;;;;;5034353;28;20030;-81
2020/12/11 05:00:19;;;;;;;7.80;4.90;;;1.00;80.10;;;;;;5033488;28;20033;-81
2020/12/11 05:02:46;;;;;;;9.63;5.30;;;1.00;80.00;;;;;;5034962;28;20033;-81
2020/12/11 05:05:13;;;;;;;9.47;5.20;;;1.00;80.00;;;;;;5032971;28;20021;-81
2020/12/11 05:07:39;;;;;;;8.60;4.50;;;0.90;80.10;;;;;;5033623;28;20474;-80
2020/12/11 05:10:06;;;;;;;8.33;5.00;;;0.90;80.60;;;;;;5033580;28;20034;-81
2020/12/11 05:12:33;;;;;;;7.97;4.83;;;0.90;80.60;;;;;;5034691;28;20028;-80
2020/12/11 05:15:04;;;;;;;10.77;5.37;;;0.90;80.50;;;;;;5033217;28;20021;-81
2020/12/11 05:17:33;;;;;;;12.83;5.57;;;0.90;80.70;;;;;;5033007;28;20080;-81
2020/12/11 05:19:59;;;;;;;8.90;4.70;;;0.90;80.60;;;;;;5033564;28;20517;-80
2020/12/11 05:22:29;;;;;;;9.57;5.23;;;0.90;80.40;;;;;;5033130;28;20037;-80
2020/12/11 05:24:59;;;;;;;9.07;4.83;;;0.80;80.80;;;;;;5034303;28;20025;-81
2020/12/11 05:27:33;;;;;;;9.97;5.57;;;0.80;80.70;;;;;;5032729;28;20033;-81
2020/12/11 05:30:20;;;;;;;11.53;5.70;;;0.90;81.00;;;;;;5033195;28;20037;-81
2020/12/11 05:32:56;;;;;;;9.60;5.80;;;0.90;80.90;;;;;;5034351;28;20108;-81
2020/12/11 05:35:31;;;;;;;8.63;4.97;;;0.80;80.60;;;;;;5032772;28;20032;-81
2020/12/11 05:38:07;;;;;;;8.60;4.47;;;0.80;80.70;;;;;;5032861;28;20153;-80
2020/12/11 05:40:40;;;;;;;8.87;4.80;;;0.80;80.80;;;;;;5032097;28;20029;-81
2020/12/11 05:43:21;;;;;;;9.43;5.40;;;0.80;80.80;;;;;;5033153;28;20041;-81
2020/12/11 05:45:54;;;;;;;7.13;4.90;;;0.80;81.00;;;;;;5032846;28;20458;-79
2020/12/11 05:48:22;;;;;;;8.07;4.83;;;0.80;81.00;;;;;;5032146;28;20390;-81
2020/12/11 05:50:48;;;;;;;8.03;4.67;;;0.80;80.90;;;;;;5032946;28;20025;-80
2020/12/11 05:53:14;;;;;;;7.33;4.53;;;0.80;81.00;;;;;;5032270;28;20041;-82
2020/12/11 05:55:40;;;;;;;7.17;4.30;;;0.80;81.00;;;;;;5033853;28;20040;-81
2020/12/11 05:58:09;;;;;;;11.03;5.17;;;0.80;80.80;;;;;;5033880;28;20124;-81
2020/12/11 06:00:35;;;;;;;8.83;4.97;;;0.80;80.90;;;;;;5032515;28;20026;-81
2020/12/11 06:03:01;;;;;;;9.33;5.10;;;0.80;80.70;;;;;;5032729;28;20495;-81
2020/12/11 06:05:27;;;;;;;11.10;4.97;;;0.80;81.30;;;;;;5033285;28;20022;-81
2020/12/11 06:07:53;;;;;;;11.13;5.23;;;0.80;81.50;;;;;;5033901;28;20032;-80
2020/12/11 06:10:23;;;;;;;12.80;6.43;;;0.90;81.50;;;;;;5033747;28;20037;-81
2020/12/11 06:12:50;;;;;;;8.73;5.20;;;0.90;81.50;;;;;;5032408;28;20021;-81
2020/12/11 06:15:22;;;;;;;11.10;5.50;;;0.90;81.40;;;;;;5032232;28;20462;-81
2020/12/11 06:17:54;;;;;;;9.30;5.47;;;1.00;81.60;;;;;;5032585;28;20497;-81
2020/12/11 06:20:20;;;;;;;10.97;5.87;;;1.00;81.70;;;;;;5032128;28;20029;-81
2020/12/11 06:22:46;;;;;;;11.03;5.67;;;1.10;81.40;;;;;;5032742;28;20059;-81
2020/12/11 06:25:28;;;;;;;10.17;5.90;;;1.10;81.40;;;;;;5033210;28;20026;-84
2020/12/11 06:27:55;;;;;;;9.82;5.75;;;1.10;81.40;;;;;;5033362;28;20037;-81
2020/12/11 06:30:32;;;;;;;9.97;5.53;;;1.20;81.60;;;;;;5032010;28;20111;-81
2020/12/11 06:32:59;;;;;;;9.50;5.90;;;1.20;81.60;;;;;;5032153;28;20483;-80
2020/12/11 06:35:26;;;;;;;9.97;5.70;;;1.30;81.20;;;;;;5031473;28;20021;-81
2020/12/11 06:37:52;;;;;;;12.57;6.23;;;1.30;81.00;;;;;;5032080;28;20040;-81
2020/12/11 06:41:04;;;;;;;11.63;6.30;;;1.30;80.90;;;;;;5032598;28;20100;-82
2020/12/11 06:43:38;;;;;;;10.40;6.13;;;1.30;81.30;;;;;;5030092;28;20060;-81
2020/12/11 06:46:14;;;;;;;13.70;7.20;;;1.40;81.30;;;;;;5033411;28;20295;-81
2020/12/11 06:49:05;;;;;;;11.57;6.17;;;1.40;80.90;;;;;;5033444;28;20484;-81
2020/12/11 06:51:32;;;;;;;11.13;6.37;;;1.50;81.10;;;;;;5033031;28;20061;-81
2020/12/11 06:53:58;;;;;;;11.37;6.53;;;1.50;80.70;;;;;;5036250;28;20383;-81
2020/12/11 06:56:43;;;;;;;12.77;7.53;;;1.60;81.00;;;;;;5035651;28;20041;-82
2020/12/11 06:59:22;;;;;;;10.80;6.17;;;1.60;80.30;;;;;;5037064;28;20036;-81
2020/12/11 07:01:52;;;;;;;11.07;5.87;;;1.60;80.40;;;;;;5035726;28;20382;-81
2020/12/11 07:04:18;;;;;;;13.27;6.73;;;1.60;80.30;;;;;;5035004;28;20467;-82
2020/12/11 07:06:47;;;;;;;12.17;6.73;;;1.60;80.20;;;;;;5035691;28;20032;-81
2020/12/11 07:09:14;;;;;;;14.37;7.13;;;1.60;80.20;;;;;;5035274;28;20031;-84
2020/12/11 07:11:39;;;;;;;13.07;6.93;;;1.60;80.40;;;;;;5035470;28;20035;-81
2020/12/11 07:14:05;;;;;;;10.63;5.80;;;1.60;80.50;;;;;;5035198;28;20029;-81
2020/12/11 07:16:38;;;;;;;12.60;6.97;;;1.60;80.70;;;;;;5035883;28;20458;-81
2020/12/11 07:19:04;;;;;;;11.90;6.70;;;1.70;80.20;;;;;;5035398;28;20502;-81
2020/12/11 07:21:31;;;;;;;11.17;6.00;;;1.70;79.80;;;;;;5034861;28;20060;-81
2020/12/11 07:23:57;;;;;;;11.60;6.63;;;1.80;80.00;;;;;;5036709;28;20038;-80
2020/12/11 07:26:23;;;;;;;13.53;6.77;;;1.80;79.80;;;;;;5035011;28;20026;-80
2020/12/11 07:29:01;;;;;;;13.40;6.87;;;1.80;79.60;;;;;;5035548;28;20044;-80
2020/12/11 07:31:28;;;;;;;11.57;6.63;;;1.80;79.60;;;;;;5035054;28;20119;-81
2020/12/11 07:33:54;;;;;;;12.27;6.77;;;1.80;79.60;;;;;;5035108;28;20056;-80
2020/12/11 07:36:20;;;;;;;11.77;6.60;;;1.90;79.40;;;;;;5035107;28;20087;-80
2020/12/11 07:38:46;;;;;;;14.63;7.67;;;1.90;79.30;;;;;;5035461;28;20034;-80
2020/12/11 07:41:17;;;;;;;14.70;7.37;;;1.90;79.30;;;;;;5035324;28;20025;-80
2020/12/11 07:43:47;;;;;;;11.23;6.20;;;1.90;79.30;;;;;;5036130;28;20027;-80
2020/12/11 07:46:21;;;;;;;13.30;6.87;;;1.90;79.30;;;;;;5035045;28;20025;-80
2020/12/11 07:48:51;;;;;;;13.77;7.43;;;1.90;79.40;;;;;;5034996;28;20029;-80
2020/12/11 07:51:18;;;;;;;13.43;7.47;;;1.90;79.50;;;;;;5035064;28;20084;-83
2020/12/11 07:53:54;;;;;;;12.13;6.73;;;1.90;79.50;;;;;;5035809;28;20029;-80
2020/12/11 07:56:25;;;;;;;12.13;6.77;;;1.90;79.60;;;;;;5034376;28;20103;-83
2020/12/11 07:58:51;;;;;;;17.42;7.68;;;1.90;79.50;;;;;;5034757;28;20037;-80
2020/12/11 08:01:16;;;;;;;16.57;7.20;;;1.90;79.40;;;;;;5035086;28;20033;-81
2020/12/11 08:03:42;;;;;;;16.17;7.20;;;1.90;79.90;;;;;;5018498;28;20029;-80
2020/12/11 08:06:12;;;;;;;15.27;7.27;;;1.90;80.10;;;;;;5018693;28;20055;-80
2020/12/11 08:08:38;;;;;;;15.30;8.00;;;2.00;80.10;;;;;;5017814;28;20104;-80
2020/12/11 08:11:04;;;;;;;14.40;7.90;;;2.00;79.70;;;;;;5018305;28;20041;-80
2020/12/11 08:13:30;;;;;;;26.83;11.43;;;2.10;80.00;;;;;;5017733;28;20398;-80
2020/12/11 08:16:01;;;;;;;40.90;17.17;;;2.10;80.00;;;;;;5018049;28;20030;-80
2020/12/11 08:18:30;;;;;;;17.52;8.82;;;2.10;80.00;;;;;;5017597;28;20402;-81
2020/12/11 08:21:00;;;;;;;15.30;8.20;;;2.10;79.60;;;;;;5018288;28;20033;-80
2020/12/11 08:23:42;;;;;;;16.17;8.47;;;2.10;80.00;;;;;;5017613;28;20028;-80
2020/12/11 08:26:08;;;;;;;13.38;7.45;;;2.20;80.20;;;;;;5018031;28;20033;-80
2020/12/11 08:28:34;;;;;;;17.03;8.50;;;2.20;79.90;;;;;;5017139;28;20135;-80
2020/12/11 08:31:20;;;;;;;16.87;9.00;;;2.20;79.70;;;;;;5017818;28;20071;-80
2020/12/11 08:33:47;;;;;;;14.97;8.10;;;2.30;79.80;;;;;;5028269;28;20099;-80
2020/12/11 08:36:26;;;;;;;15.33;8.00;;;2.30;79.70;;;;;;5035448;28;20022;-80
2020/12/11 08:39:05;;;;;;;15.63;8.57;;;2.40;79.40;;;;;;5034552;28;20056;-81
2020/12/11 08:41:32;;;;;;;19.33;8.30;;;2.40;79.00;;;;;;5034690;28;20021;-79
2020/12/11 08:43:59;;;;;;;16.13;7.53;;;2.40;78.90;;;;;;5034090;28;20036;-80
2020/12/11 08:49:23;;;;;;;14.48;7.55;;;2.40;78.80;;;;;;5011433;28;20395;-80
2020/12/11 08:51:48;;;;;;;19.52;9.23;;;2.40;79.00;;;;;;5033831;28;20116;-80
2020/12/11 08:54:15;;;;;;;16.40;8.33;;;2.40;78.70;;;;;;5033929;28;20060;-81
2020/12/11 08:56:46;;;;;;;18.90;8.53;;;2.50;78.80;;;;;;5034596;28;20036;-81
2020/12/11 08:59:12;;;;;;;14.02;8.00;;;2.50;78.80;;;;;;5034683;28;20037;-80
2020/12/11 09:01:41;;;;;;;15.50;8.03;;;2.40;78.80;;;;;;5033570;28;20040;-81
2020/12/11 09:04:07;;;;;;;15.63;8.03;;;2.40;78.60;;;;;;5034938;28;20029;-81
2020/12/11 09:06:32;;;;;;;13.97;7.40;;;2.50;78.80;;;;;;5033126;28;20075;-81
2020/12/11 09:08:58;;;;;;;15.10;7.60;;;2.60;78.70;;;;;;5033618;28;20052;-80
2020/12/11 09:11:24;;;;;;;15.40;7.73;;;2.60;78.60;;;;;;5033209;28;20069;-82
2020/12/11 09:13:49;;;;;;;15.40;7.20;;;2.70;77.90;;;;;;5034092;28;20021;-82
2020/12/11 09:16:15;;;;;;;14.20;7.10;;;2.70;78.10;;;;;;5032671;28;20033;-82
2020/12/11 09:18:40;;;;;;;17.30;8.17;;;2.80;78.00;;;;;;5032123;28;20036;-82
2020/12/11 09:21:06;;;;;;;14.13;7.73;;;2.90;78.00;;;;;;5034221;28;20028;-82
2020/12/11 09:23:32;;;;;;;15.27;7.33;;;2.90;78.00;;;;;;5032923;28;20422;-82
2020/12/11 09:25:57;;;;;;;13.57;7.80;;;2.90;78.00;;;;;;5033453;28;20025;-82
2020/12/11 09:28:24;;;;;;;14.93;8.10;;;2.80;77.50;;;;;;5033640;28;20035;-82
2020/12/11 09:30:50;;;;;;;16.43;7.80;;;2.80;77.90;;;;;;5033230;28;20033;-81
2020/12/11 09:33:25;;;;;;;16.13;7.77;;;2.80;78.40;;;;;;5032591;28;20055;-82
2020/12/11 09:35:50;;;;;;;16.10;7.97;;;2.90;78.70;;;;;;5032345;28;20525;-82
2020/12/11 09:38:16;;;;;;;14.57;7.90;;;3.00;78.50;;;;;;5032266;28;20025;-81
2020/12/11 09:40:53;;;;;;;17.03;7.37;;;3.00;78.20;;;;;;5031554;28;20112;-82
2020/12/11 09:46:28;;;;;;;13.63;7.10;;;3.10;78.10;;;;;;4982837;28;20042;-81
2020/12/11 09:54:09;;;;;;;14.40;6.83;;;3.20;78.10;;;;;;5033083;28;20041;-82
2020/12/11 09:56:35;;;;;;;13.95;6.53;;;3.20;78.10;;;;;;5031648;28;20116;-81
2020/12/11 09:59:08;;;;;;;12.47;6.03;;;3.30;77.90;;;;;;5032181;28;20041;-81
2020/12/11 10:02:14;;;;;;;11.93;6.40;;;3.20;77.40;;;;;;5031887;28;20064;-82
2020/12/11 10:04:25;;;;;;;11.40;6.28;;;3.20;77.40;;;;;;5028453;28;20474;-82
2020/12/11 10:06:51;;;;;;;11.20;6.20;;;3.20;77.40;;;;;;5033092;28;20030;-81
2020/12/11 10:09:17;;;;;;;14.23;5.80;;;3.20;77.50;;;;;;5032371;28;20033;-81
2020/12/11 10:11:43;;;;;;;10.80;5.37;;;3.20;77.30;;;;;;5031701;28;20545;-82
2020/12/11 10:16:41;;;;;;;6.38;3.83;;;3.30;77.10;;;;;;5032976;28;20025;-82
2020/12/11 10:19:07;;;;;;;8.40;5.03;;;3.30;76.80;;;;;;5032124;28;20037;-81
2020/12/11 10:21:33;;;;;;;10.00;5.30;;;3.40;77.50;;;;;;5031012;28;20025;-89
2020/12/11 10:23:59;;;;;;;9.00;5.50;;;3.40;77.00;;;;;;5032559;28;20537;-82
2020/12/11 10:26:24;;;;;;;10.33;5.40;;;3.30;76.70;;;;;;5033696;28;20044;-83
2020/12/11 10:28:50;;;;;;;10.73;5.07;;;3.30;76.40;;;;;;5035131;28;20474;-82
2020/12/11 10:31:16;;;;;;;8.13;4.77;;;3.40;76.80;;;;;;5035344;28;20121;-81
2020/12/11 10:33:42;;;;;;;9.40;5.30;;;3.40;75.70;;;;;;5002218;28;1044216;-81
2020/12/11 10:36:08;;;;;;;9.40;5.20;;;3.40;75.20;;;;;;5057331;28;20033;-81
2020/12/11 10:38:33;;;;;;;10.90;5.40;;;3.40;75.40;;;;;;5057109;28;20029;-81
2020/12/11 10:40:59;;;;;;;11.17;6.57;;;3.40;75.70;;;;;;5039957;28;20500;-82
2020/12/11 10:43:25;;;;;;;10.63;5.03;;;3.50;75.50;;;;;;5039609;28;20047;-85
2020/12/11 10:45:50;;;;;;;8.90;5.03;;;3.60;75.80;;;;;;5039634;28;20112;-82
2020/12/11 10:48:16;;;;;;;9.40;5.03;;;3.60;75.70;;;;;;5039341;28;20028;-81
2020/12/11 10:50:42;;;;;;;10.77;5.47;;;3.60;75.90;;;;;;5039072;28;20037;-82
2020/12/11 10:53:07;;;;;;;9.53;5.50;;;3.80;76.80;;;;;;5057124;28;20029;-82
2020/12/11 10:55:33;;;;;;;11.07;5.77;;;3.90;77.00;;;;;;5035402;28;20029;-82
2020/12/11 10:57:58;;;;;;;10.63;5.13;;;4.00;76.00;;;;;;5037477;28;20030;-82
2020/12/11 11:00:24;;;;;;;8.50;5.00;;;4.00;75.50;;;;;;5038176;28;20057;-82
2020/12/11 11:02:50;;;;;;;10.27;5.70;;;4.10;75.60;;;;;;5050060;28;20060;-80
2020/12/11 11:05:15;;;;;;;10.97;6.00;;;4.20;75.50;;;;;;5039521;28;20048;-82
2020/12/11 11:07:41;;;;;;;12.60;6.13;;;4.20;74.60;;;;;;5039352;28;20021;-82
2020/12/11 11:12:42;;;;;;;11.67;5.87;;;4.20;74.50;;;;;;5056293;28;20021;-82
2020/12/11 11:20:35;;;;;;;12.80;7.20;;;4.20;75.10;;;;;;5056266;28;20467;-82
2020/12/11 11:25:48;;;;;;;14.80;6.10;;;4.20;74.90;;;;;;5056351;28;20069;-85
2020/12/11 11:28:14;;;;;;;13.03;6.80;;;4.20;75.00;;;;;;5056395;28;20086;-81
2020/12/11 11:30:40;;;;;;;10.13;6.10;;;4.20;74.90;;;;;;5037748;28;20111;-82
2020/12/11 11:33:05;;;;;;;12.80;6.33;;;4.20;75.60;;;;;;5038562;28;20520;-82
2020/12/11 11:35:31;;;;;;;13.43;6.87;;;4.20;75.40;;;;;;5056133;28;20052;-86
2020/12/11 11:37:58;;;;;;;13.70;6.47;;;4.20;75.40;;;;;;5037527;28;20470;-82
2020/12/11 11:40:25;;;;;;;16.30;7.83;;;4.30;75.60;;;;;;5056357;28;20112;-84
2020/12/11 11:42:51;;;;;;;15.33;7.13;;;4.20;75.30;;;;;;5038238;28;20074;-84
2020/12/11 11:45:20;;;;;;;12.77;6.87;;;4.20;75.80;;;;;;5038773;28;20116;-85
2020/12/11 11:47:54;;;;;;;13.80;7.27;;;4.30;76.10;;;;;;5055976;28;20025;-84
2020/12/11 11:53:03;;;;;;;16.40;7.97;;;4.30;75.80;;;;;;5055951;28;20017;-83
2020/12/11 11:55:29;;;;;;;23.63;9.63;;;4.30;75.50;;;;;;5038323;28;20036;-84
2020/12/11 11:57:55;;;;;;;17.53;7.73;;;4.40;75.60;;;;;;5037987;28;20032;-84
2020/12/11 12:00:21;;;;;;;15.00;8.20;;;4.40;75.20;;;;;;5038323;28;20029;-82
2020/12/11 12:02:47;;;;;;;13.23;7.60;;;4.40;75.20;;;;;;5037614;28;20028;-83
2020/12/11 12:05:13;;;;;;;14.10;7.67;;;4.50;75.20;;;;;;5055791;28;20029;-84
2020/12/11 12:07:40;;;;;;;16.67;7.50;;;4.50;75.20;;;;;;5037742;28;20025;-84
2020/12/11 12:10:09;;;;;;;15.57;8.00;;;4.50;75.20;;;;;;5038088;28;20075;-86
2020/12/11 12:12:42;;;;;;;19.63;9.53;;;4.60;75.50;;;;;;5037509;28;20127;-85
2020/12/11 12:15:11;;;;;;;15.27;7.30;;;4.60;75.60;;;;;;5038099;28;20032;-84
2020/12/11 12:17:45;;;;;;;15.93;8.10;;;4.50;75.40;;;;;;5037665;28;20382;-84
2020/12/11 12:20:16;;;;;;;14.37;7.40;;;4.50;75.20;;;;;;5038141;28;20032;-84
2020/12/11 12:23:32;;;;;;;14.43;7.50;;;4.50;75.20;;;;;;5037413;28;20355;-85
2020/12/11 12:28:42;;;;;;;14.60;7.77;;;4.50;75.00;;;;;;5055333;28;20040;-84
2020/12/11 12:31:08;;;;;;;13.50;7.40;;;4.50;74.90;;;;;;5037819;28;20033;-84
2020/12/11 12:34:10;;;;;;;14.80;7.87;;;4.50;75.00;;;;;;5054554;28;20053;-84
2020/12/11 12:36:47;;;;;;;17.03;8.67;;;4.50;75.10;;;;;;5055111;28;20474;-83
2020/12/11 12:44:36;;;;;;;17.70;7.67;;;4.50;75.30;;;;;;5054929;28;20561;-85
2020/12/11 12:47:01;;;;;;;14.07;8.00;;;4.50;75.30;;;;;;5055118;28;20060;-84
2020/12/11 12:49:27;;;;;;;13.63;7.47;;;4.50;75.70;;;;;;5053836;28;20025;-83
2020/12/11 12:51:52;;;;;;;14.53;7.80;;;4.50;75.20;;;;;;5037156;28;20064;-84
2020/12/11 12:54:18;;;;;;;15.53;7.60;;;4.50;75.20;;;;;;5037390;28;20053;-83
2020/12/11 12:57:02;;;;;;;17.00;7.77;;;4.40;75.00;;;;;;5036993;28;20460;-84
2020/12/11 13:05:10;;;;;;;17.40;7.90;;;4.40;75.60;;;;;;5013027;28;20030;-84
2020/12/11 13:07:36;;;;;;;14.10;7.47;;;4.40;75.60;;;;;;5049019;28;20033;-84
2020/12/11 13:10:03;;;;;;;13.23;7.43;;;4.40;75.60;;;;;;5037298;28;20079;-84
2020/12/11 13:12:29;;;;;;;14.07;7.93;;;4.40;75.70;;;;;;5037163;28;20029;-83
2020/12/11 13:14:55;;;;;;;14.70;7.33;;;4.40;76.70;;;;;;5036575;28;20477;-84
2020/12/11 13:17:20;;;;;;;14.83;8.23;;;4.40;76.10;;;;;;5037057;28;20131;-84
2020/12/11 13:19:47;;;;;;;15.10;7.43;;;4.40;76.70;;;;;;5036627;28;20086;-84
2020/12/11 13:28:00;;;;;;;14.73;7.77;;;4.40;76.90;;;;;;4993396;28;20070;-84
2020/12/11 13:30:26;;;;;;;15.83;7.63;;;4.30;76.90;;;;;;4976965;28;20069;-83
2020/12/11 13:32:51;;;;;;;17.00;8.70;;;4.30;77.20;;;;;;5003700;28;20106;-82
2020/12/11 13:35:17;;;;;;;17.10;7.97;;;4.30;77.60;;;;;;5036675;28;20480;-83
2020/12/11 13:37:43;;;;;;;14.90;8.40;;;4.30;77.90;;;;;;5036485;28;20039;-84
2020/12/11 13:40:09;;;;;;;14.57;8.13;;;4.20;78.10;;;;;;5036654;28;20029;-84
2020/12/11 13:42:34;;;;;;;15.57;7.90;;;4.20;78.40;;;;;;5036560;28;20029;-83
2020/12/11 13:45:00;;;;;;;13.27;7.00;;;4.20;78.80;;;;;;5036483;28;20064;-84